sensor_id;sensor_type;location;lat;lon;timestamp;pressure;altitude;pressure_sealevel;temperature;humidity
29045;BME280;16133;49.486;12.176;2023-08-24T00:01:36;97572.19;;;14.14;100.00
29045;BME280;16133;49.486;12.176;2023-08-24T00:04:02;97560.91;;;14.12;100.00
29045;BME280;16133;49.486;12.176;2023-08-24T00:06:27;97557.63;;;14.10;100.00
29045;BME280;16133;49.486;12.176;2023-08-24T00:08:53;97545.31;;;14.09;100.00
29045;BME280;16133;49.486;12.176;2023-08-24T00:11:18;97540.97;;;14.08;100.00
29045;BME280;16133;49.486;12.176;2023-08-24T00:13:44;97544.88;;;14.06;100.00
29045;BME280;16133;49.486;12.176;2023-08-24T00:16:20;97545.88;;;14.05;100.00
29045;BME280;16133;49.486;12.176;2023-08-24T00:18:46;97540.75;;;14.03;100.00
29045;BME280;16133;49.486;12.176;2023-08-24T00:21:15;97530.47;;;14.00;100.00
29045;BME280;16133;49.486;12.176;2023-08-24T00:23:42;97527.19;;;13.98;100.00
29045;BME280;16133;49.486;12.176;2023-08-24T00:26:09;97524.72;;;13.97;100.00
29045;BME280;16133;49.486;12.176;2023-08-24T00:28:34;97522.44;;;13.94;100.00
29045;BME280;16133;49.486;12.176;2023-08-24T00:31:00;97506.44;;;13.94;100.00
29045;BME280;16133;49.486;12.176;2023-08-24T00:33:26;97488.78;;;13.93;100.00
29045;BME280;16133;49.486;12.176;2023-08-24T00:35:51;97480.38;;;13.96;100.00
29045;BME280;16133;49.486;12.176;2023-08-24T00:38:17;97456.75;;;13.93;100.00
29045;BME280;16133;49.486;12.176;2023-08-24T00:40:42;97464.19;;;13.97;100.00
29045;BME280;16133;49.486;12.176;2023-08-24T00:43:09;97454.75;;;13.95;100.00
29045;BME280;16133;49.486;12.176;2023-08-24T00:45:34;97465.78;;;13.92;100.00
29045;BME280;16133;49.486;12.176;2023-08-24T00:48:01;97466.19;;;13.88;100.00
29045;BME280;16133;49.486;12.176;2023-08-24T00:50:27;97480.75;;;13.86;100.00
29045;BME280;16133;49.486;12.176;2023-08-24T00:52:53;97475.81;;;13.83;100.00
29045;BME280;16133;49.486;12.176;2023-08-24T00:55:19;97480.50;;;13.81;100.00
29045;BME280;16133;49.486;12.176;2023-08-24T00:57:45;97466.72;;;13.71;100.00
29045;BME280;16133;49.486;12.176;2023-08-24T01:00:11;97474.75;;;13.77;100.00
29045;BME280;16133;49.486;12.176;2023-08-24T01:02:37;97470.44;;;13.76;100.00
29045;BME280;16133;49.486;12.176;2023-08-24T01:05:03;97462.84;;;13.73;100.00
29045;BME280;16133;49.486;12.176;2023-08-24T01:07:34;97462.44;;;13.76;100.00
29045;BME280;16133;49.486;12.176;2023-08-24T01:10:00;97465.09;;;13.76;100.00
29045;BME280;16133;49.486;12.176;2023-08-24T01:17:44;97423.91;;;13.85;100.00
29045;BME280;16133;49.486;12.176;2023-08-24T01:20:14;97428.84;;;13.88;100.00
29045;BME280;16133;49.486;12.176;2023-08-24T01:22:56;97422.31;;;13.91;100.00
29045;BME280;16133;49.486;12.176;2023-08-24T01:25:40;97408.75;;;13.93;100.00
29045;BME280;16133;49.486;12.176;2023-08-24T01:28:08;97412.44;;;13.92;100.00
29045;BME280;16133;49.486;12.176;2023-08-24T01:30:34;97415.09;;;13.85;100.00
29045;BME280;16133;49.486;12.176;2023-08-24T01:33:03;97415.69;;;13.80;100.00
29045;BME280;16133;49.486;12.176;2023-08-24T01:35:30;97430.44;;;13.76;100.00
29045;BME280;16133;49.486;12.176;2023-08-24T01:37:56;97429.19;;;13.72;100.00
29045;BME280;16133;49.486;12.176;2023-08-24T01:40:27;97441.25;;;13.68;100.00
29045;BME280;16133;49.486;12.176;2023-08-24T01:43:03;97439.41;;;13.62;100.00
29045;BME280;16133;49.486;12.176;2023-08-24T01:45:31;97440.81;;;13.58;100.00
29045;BME280;16133;49.486;12.176;2023-08-24T01:47:59;97438.94;;;13.52;100.00
29045;BME280;16133;49.486;12.176;2023-08-24T01:50:25;97432.16;;;13.50;100.00
29045;BME280;16133;49.486;12.176;2023-08-24T01:52:51;97433.19;;;13.49;100.00
29045;BME280;16133;49.486;12.176;2023-08-24T01:55:20;97438.09;;;13.45;100.00
29045;BME280;16133;49.486;12.176;2023-08-24T01:57:46;97430.69;;;13.40;100.00
29045;BME280;16133;49.486;12.176;2023-08-24T02:00:12;97429.44;;;13.36;100.00
29045;BME280;16133;49.486;12.176;2023-08-24T02:02:37;97430.44;;;13.35;100.00
29045;BME280;16133;49.486;12.176;2023-08-24T02:05:03;97410.09;;;13.28;100.00
29045;BME280;16133;49.486;12.176;2023-08-24T02:07:29;97417.31;;;13.34;100.00
29045;BME280;16133;49.486;12.176;2023-08-24T02:09:54;97416.69;;;13.32;100.00
29045;BME280;16133;49.486;12.176;2023-08-24T02:12:20;97416.88;;;13.30;100.00
29045;BME280;16133;49.486;12.176;2023-08-24T02:14:46;97422.41;;;13.29;100.00
29045;BME280;16133;49.486;12.176;2023-08-24T02:17:11;97419.50;;;13.24;100.00
29045;BME280;16133;49.486;12.176;2023-08-24T02:19:36;97416.44;;;13.27;100.00
29045;BME280;16133;49.486;12.176;2023-08-24T02:22:02;97417.50;;;13.26;100.00
29045;BME280;16133;49.486;12.176;2023-08-24T02:24:27;97410.91;;;13.22;100.00
29045;BME280;16133;49.486;12.176;2023-08-24T02:26:53;97414.56;;;13.21;100.00
29045;BME280;16133;49.486;12.176;2023-08-24T02:29:18;97405.31;;;13.17;100.00
29045;BME280;16133;49.486;12.176;2023-08-24T02:31:43;97414.34;;;13.16;100.00
29045;BME280;16133;49.486;12.176;2023-08-24T02:34:09;97412.47;;;13.10;100.00
29045;BME280;16133;49.486;12.176;2023-08-24T02:36:35;97420.25;;;13.11;100.00
29045;BME280;16133;49.486;12.176;2023-08-24T02:39:00;97420.47;;;13.10;100.00
29045;BME280;16133;49.486;12.176;2023-08-24T02:41:26;97417.94;;;13.08;100.00
29045;BME280;16133;49.486;12.176;2023-08-24T02:43:52;97413.19;;;13.04;100.00
29045;BME280;16133;49.486;12.176;2023-08-24T02:46:18;97411.56;;;13.03;100.00
29045;BME280;16133;49.486;12.176;2023-08-24T02:48:46;97424.25;;;13.01;100.00
29045;BME280;16133;49.486;12.176;2023-08-24T02:51:11;97424.63;;;12.98;100.00
29045;BME280;16133;49.486;12.176;2023-08-24T02:53:37;97421.31;;;12.95;100.00
29045;BME280;16133;49.486;12.176;2023-08-24T02:56:03;97419.06;;;12.92;100.00
29045;BME280;16133;49.486;12.176;2023-08-24T02:58:29;97414.78;;;12.91;100.00
29045;BME280;16133;49.486;12.176;2023-08-24T03:00:55;97417.63;;;12.90;100.00
29045;BME280;16133;49.486;12.176;2023-08-24T03:03:20;97416.78;;;12.89;100.00
29045;BME280;16133;49.486;12.176;2023-08-24T03:06:12;97415.34;;;12.87;100.00
29045;BME280;16133;49.486;12.176;2023-08-24T03:08:38;97412.88;;;12.85;100.00
29045;BME280;16133;49.486;12.176;2023-08-24T03:11:03;97411.03;;;12.86;100.00
29045;BME280;16133;49.486;12.176;2023-08-24T03:13:29;97415.97;;;12.89;100.00
29045;BME280;16133;49.486;12.176;2023-08-24T03:15:55;97410.25;;;12.92;100.00
29045;BME280;16133;49.486;12.176;2023-08-24T03:18:21;97403.72;;;12.94;100.00
29045;BME280;16133;49.486;12.176;2023-08-24T03:20:48;97398.41;;;12.94;100.00
29045;BME280;16133;49.486;12.176;2023-08-24T03:23:14;97400.41;;;12.92;100.00
29045;BME280;16133;49.486;12.176;2023-08-24T03:25:41;97395.47;;;12.89;100.00
29045;BME280;16133;49.486;12.176;2023-08-24T03:28:07;97405.53;;;12.87;100.00
29045;BME280;16133;49.486;12.176;2023-08-24T03:30:35;97412.69;;;12.87;100.00
29045;BME280;16133;49.486;12.176;2023-08-24T03:33:00;97397.47;;;12.81;100.00
29045;BME280;16133;49.486;12.176;2023-08-24T03:35:29;97410.44;;;12.90;100.00
29045;BME280;16133;49.486;12.176;2023-08-24T03:37:55;97404.25;;;12.83;100.00
29045;BME280;16133;49.486;12.176;2023-08-24T03:40:20;97405.28;;;12.82;100.00
29045;BME280;16133;49.486;12.176;2023-08-24T03:42:46;97414.28;;;12.81;100.00
29045;BME280;16133;49.486;12.176;2023-08-24T03:45:11;97404.84;;;12.79;100.00
29045;BME280;16133;49.486;12.176;2023-08-24T03:47:36;97408.50;;;12.78;100.00
29045;BME280;16133;49.486;12.176;2023-08-24T03:50:02;97413.22;;;12.76;100.00
29045;BME280;16133;49.486;12.176;2023-08-24T03:52:27;97415.44;;;12.72;100.00
29045;BME280;16133;49.486;12.176;2023-08-24T03:54:52;97419.13;;;12.71;100.00
29045;BME280;16133;49.486;12.176;2023-08-24T03:57:18;97420.78;;;12.72;100.00
29045;BME280;16133;49.486;12.176;2023-08-24T03:59:43;97419.13;;;12.71;100.00
29045;BME280;16133;49.486;12.176;2023-08-24T04:02:09;97411.53;;;12.68;100.00
29045;BME280;16133;49.486;12.176;2023-08-24T04:04:34;97417.63;;;12.69;100.00
29045;BME280;16133;49.486;12.176;2023-08-24T04:07:00;97425.19;;;12.65;100.00
29045;BME280;16133;49.486;12.176;2023-08-24T04:09:27;97426.84;;;12.66;100.00
29045;BME280;16133;49.486;12.176;2023-08-24T04:11:52;97423.44;;;12.72;100.00
29045;BME280;16133;49.486;12.176;2023-08-24T04:14:18;97417.91;;;12.74;100.00
29045;BME280;16133;49.486;12.176;2023-08-24T04:16:43;97416.31;;;12.79;100.00
29045;BME280;16133;49.486;12.176;2023-08-24T04:19:08;97402.22;;;12.85;100.00
29045;BME280;16133;49.486;12.176;2023-08-24T04:21:34;97406.56;;;12.93;100.00
29045;BME280;16133;49.486;12.176;2023-08-24T04:23:59;97393.69;;;12.97;100.00
29045;BME280;16133;49.486;12.176;2023-08-24T04:26:25;97405.84;;;13.06;100.00
29045;BME280;16133;49.486;12.176;2023-08-24T04:28:50;97405.44;;;13.09;100.00
29045;BME280;16133;49.486;12.176;2023-08-24T04:31:16;97407.34;;;13.15;100.00
29045;BME280;16133;49.486;12.176;2023-08-24T04:33:41;97401.00;;;13.16;100.00
29045;BME280;16133;49.486;12.176;2023-08-24T04:36:07;97405.75;;;13.20;100.00
29045;BME280;16133;49.486;12.176;2023-08-24T04:38:32;97395.94;;;13.21;100.00
29045;BME280;16133;49.486;12.176;2023-08-24T04:40:57;97403.53;;;13.24;100.00
29045;BME280;16133;49.486;12.176;2023-08-24T04:43:24;97405.84;;;13.33;100.00
29045;BME280;16133;49.486;12.176;2023-08-24T04:45:51;97400.94;;;13.37;100.00
29045;BME280;16133;49.486;12.176;2023-08-24T04:48:18;97395.81;;;13.42;100.00
29045;BME280;16133;49.486;12.176;2023-08-24T04:50:45;97394.84;;;13.50;100.00
29045;BME280;16133;49.486;12.176;2023-08-24T04:53:14;97392.22;;;13.56;100.00
29045;BME280;16133;49.486;12.176;2023-08-24T04:55:40;97403.72;;;13.63;100.00
29045;BME280;16133;49.486;12.176;2023-08-24T04:58:07;97397.59;;;13.69;100.00
29045;BME280;16133;49.486;12.176;2023-08-24T05:00:33;97387.75;;;13.76;100.00
29045;BME280;16133;49.486;12.176;2023-08-24T05:03:00;97393.34;;;13.88;100.00
29045;BME280;16133;49.486;12.176;2023-08-24T05:05:28;97394.22;;;14.02;100.00
29045;BME280;16133;49.486;12.176;2023-08-24T05:07:54;97386.44;;;14.20;100.00
29045;BME280;16133;49.486;12.176;2023-08-24T05:10:20;97381.38;;;14.38;100.00
29045;BME280;16133;49.486;12.176;2023-08-24T05:12:45;97378.09;;;14.49;100.00
29045;BME280;16133;49.486;12.176;2023-08-24T05:15:10;97387.97;;;14.62;100.00
29045;BME280;16133;49.486;12.176;2023-08-24T05:17:36;97390.63;;;14.81;100.00
29045;BME280;16133;49.486;12.176;2023-08-24T05:20:02;97394.28;;;15.20;100.00
29045;BME280;16133;49.486;12.176;2023-08-24T05:22:28;97403.06;;;15.53;100.00
29045;BME280;16133;49.486;12.176;2023-08-24T05:24:54;97438.13;;;15.83;100.00
29045;BME280;16133;49.486;12.176;2023-08-24T05:27:19;97454.34;;;15.95;100.00
29045;BME280;16133;49.486;12.176;2023-08-24T05:29:45;97474.09;;;16.00;100.00
29045;BME280;16133;49.486;12.176;2023-08-24T05:32:10;97503.72;;;16.05;100.00
29045;BME280;16133;49.486;12.176;2023-08-24T05:34:36;97525.69;;;16.27;100.00
29045;BME280;16133;49.486;12.176;2023-08-24T05:37:01;97550.03;;;16.63;100.00
29045;BME280;16133;49.486;12.176;2023-08-24T05:39:26;97568.81;;;16.95;100.00
29045;BME280;16133;49.486;12.176;2023-08-24T05:41:52;97584.88;;;17.01;100.00
29045;BME280;16133;49.486;12.176;2023-08-24T05:44:21;97600.75;;;17.03;100.00
29045;BME280;16133;49.486;12.176;2023-08-24T05:46:46;97605.66;;;17.06;100.00
29045;BME280;16133;49.486;12.176;2023-08-24T05:49:13;97615.28;;;17.20;100.00
29045;BME280;16133;49.486;12.176;2023-08-24T05:51:38;97611.41;;;17.41;100.00
29045;BME280;16133;49.486;12.176;2023-08-24T05:54:04;97607.09;;;17.40;100.00
29045;BME280;16133;49.486;12.176;2023-08-24T05:56:29;97622.88;;;17.54;100.00
29045;BME280;16133;49.486;12.176;2023-08-24T05:58:55;97633.22;;;17.51;100.00
29045;BME280;16133;49.486;12.176;2023-08-24T06:01:20;97632.03;;;17.47;100.00
29045;BME280;16133;49.486;12.176;2023-08-24T06:03:46;97635.16;;;17.44;100.00
29045;BME280;16133;49.486;12.176;2023-08-24T06:06:12;97640.97;;;17.34;100.00
29045;BME280;16133;49.486;12.176;2023-08-24T06:08:37;97630.44;;;17.33;100.00
29045;BME280;16133;49.486;12.176;2023-08-24T06:11:03;97628.78;;;17.38;100.00
29045;BME280;16133;49.486;12.176;2023-08-24T06:13:28;97624.00;;;17.40;100.00
29045;BME280;16133;49.486;12.176;2023-08-24T06:15:54;97623.75;;;17.48;100.00
29045;BME280;16133;49.486;12.176;2023-08-24T06:18:20;97623.31;;;17.58;100.00
29045;BME280;16133;49.486;12.176;2023-08-24T06:20:46;97620.72;;;17.70;100.00
29045;BME280;16133;49.486;12.176;2023-08-24T06:23:11;97621.66;;;17.82;100.00
29045;BME280;16133;49.486;12.176;2023-08-24T06:25:38;97614.81;;;17.86;100.00
29045;BME280;16133;49.486;12.176;2023-08-24T06:28:04;97629.75;;;18.00;100.00
29045;BME280;16133;49.486;12.176;2023-08-24T06:30:30;97641.84;;;18.09;100.00
29045;BME280;16133;49.486;12.176;2023-08-24T06:33:02;97634.94;;;18.20;100.00
29045;BME280;16133;49.486;12.176;2023-08-24T06:35:28;97643.66;;;18.33;100.00
29045;BME280;16133;49.486;12.176;2023-08-24T06:37:53;97635.47;;;18.46;100.00
29045;BME280;16133;49.486;12.176;2023-08-24T06:40:19;97633.72;;;18.58;100.00
29045;BME280;16133;49.486;12.176;2023-08-24T06:42:44;97627.13;;;18.73;100.00
29045;BME280;16133;49.486;12.176;2023-08-24T06:45:10;97623.31;;;18.80;100.00
29045;BME280;16133;49.486;12.176;2023-08-24T06:47:36;97618.72;;;18.99;100.00
29045;BME280;16133;49.486;12.176;2023-08-24T06:50:01;97626.16;;;19.15;100.00
29045;BME280;16133;49.486;12.176;2023-08-24T06:52:27;97630.88;;;19.31;100.00
29045;BME280;16133;49.486;12.176;2023-08-24T06:54:52;97632.34;;;19.45;100.00
29045;BME280;16133;49.486;12.176;2023-08-24T06:57:21;97629.47;;;19.59;100.00
29045;BME280;16133;49.486;12.176;2023-08-24T06:59:46;97619.50;;;19.71;100.00
29045;BME280;16133;49.486;12.176;2023-08-24T07:02:11;97614.41;;;19.81;100.00
29045;BME280;16133;49.486;12.176;2023-08-24T07:04:38;97620.47;;;19.88;100.00
29045;BME280;16133;49.486;12.176;2023-08-24T07:07:05;97625.06;;;19.99;100.00
29045;BME280;16133;49.486;12.176;2023-08-24T07:09:31;97626.22;;;20.15;100.00
29045;BME280;16133;49.486;12.176;2023-08-24T07:11:56;97618.03;;;20.33;99.12
29045;BME280;16133;49.486;12.176;2023-08-24T07:14:22;97618.81;;;20.57;97.83
29045;BME280;16133;49.486;12.176;2023-08-24T07:16:47;97606.19;;;20.85;95.29
29045;BME280;16133;49.486;12.176;2023-08-24T07:19:12;97598.56;;;21.22;95.19
29045;BME280;16133;49.486;12.176;2023-08-24T07:21:38;97585.59;;;21.69;94.20
29045;BME280;16133;49.486;12.176;2023-08-24T07:24:03;97587.50;;;22.24;90.64
29045;BME280;16133;49.486;12.176;2023-08-24T07:26:29;97569.84;;;22.76;87.09
29045;BME280;16133;49.486;12.176;2023-08-24T07:28:55;97561.44;;;23.26;84.05
29045;BME280;16133;49.486;12.176;2023-08-24T07:31:21;97553.63;;;23.57;80.63
29045;BME280;16133;49.486;12.176;2023-08-24T07:33:48;97560.75;;;23.68;78.63
29045;BME280;16133;49.486;12.176;2023-08-24T07:36:13;97562.97;;;23.76;76.95
29045;BME280;16133;49.486;12.176;2023-08-24T07:38:39;97554.34;;;23.84;76.01
29045;BME280;16133;49.486;12.176;2023-08-24T07:41:04;97548.75;;;24.01;77.36
29045;BME280;16133;49.486;12.176;2023-08-24T07:43:31;97552.47;;;24.26;76.07
29045;BME280;16133;49.486;12.176;2023-08-24T07:45:57;97552.59;;;24.52;74.42
29045;BME280;16133;49.486;12.176;2023-08-24T07:48:22;97562.16;;;24.64;73.24
29045;BME280;16133;49.486;12.176;2023-08-24T07:50:48;97566.19;;;24.62;72.88
29045;BME280;16133;49.486;12.176;2023-08-24T07:53:13;97560.78;;;24.62;73.29
29045;BME280;16133;49.486;12.176;2023-08-24T07:55:39;97557.81;;;24.63;73.67
29045;BME280;16133;49.486;12.176;2023-08-24T07:58:04;97548.63;;;24.74;72.75
29045;BME280;16133;49.486;12.176;2023-08-24T08:00:30;97542.94;;;24.81;72.78
29045;BME280;16133;49.486;12.176;2023-08-24T08:02:56;97547.06;;;24.94;71.37
29045;BME280;16133;49.486;12.176;2023-08-24T08:05:21;97559.03;;;25.08;70.12
29045;BME280;16133;49.486;12.176;2023-08-24T08:07:48;97559.31;;;25.11;69.49
29045;BME280;16133;49.486;12.176;2023-08-24T08:10:14;97562.81;;;25.07;69.03
29045;BME280;16133;49.486;12.176;2023-08-24T08:12:40;97572.34;;;25.04;69.34
29045;BME280;16133;49.486;12.176;2023-08-24T08:15:06;97576.13;;;24.93;69.31
29045;BME280;16133;49.486;12.176;2023-08-24T08:17:32;97587.25;;;24.97;69.71
29045;BME280;16133;49.486;12.176;2023-08-24T08:19:58;97588.91;;;25.03;69.45
29045;BME280;16133;49.486;12.176;2023-08-24T08:22:23;97592.44;;;25.08;68.92
29045;BME280;16133;49.486;12.176;2023-08-24T08:24:51;97597.34;;;25.11;68.59
29045;BME280;16133;49.486;12.176;2023-08-24T08:27:16;97606.03;;;25.08;68.41
29045;BME280;16133;49.486;12.176;2023-08-24T08:29:42;97599.28;;;25.31;67.95
29045;BME280;16133;49.486;12.176;2023-08-24T08:32:08;97605.59;;;25.57;66.46
29045;BME280;16133;49.486;12.176;2023-08-24T08:34:33;97605.88;;;26.01;67.23
29045;BME280;16133;49.486;12.176;2023-08-24T08:36:59;97604.47;;;26.39;65.67
29045;BME280;16133;49.486;12.176;2023-08-24T08:39:24;97608.47;;;26.67;62.44
29045;BME280;16133;49.486;12.176;2023-08-24T08:41:49;97613.88;;;26.82;61.36
29045;BME280;16133;49.486;12.176;2023-08-24T08:44:18;97608.97;;;26.84;60.32
29045;BME280;16133;49.486;12.176;2023-08-24T08:46:45;97605.19;;;26.75;61.16
29045;BME280;16133;49.486;12.176;2023-08-24T08:49:13;97609.88;;;26.49;61.80
29045;BME280;16133;49.486;12.176;2023-08-24T08:51:41;97604.50;;;26.24;63.00
29045;BME280;16133;49.486;12.176;2023-08-24T08:54:06;97597.44;;;25.97;65.59
29045;BME280;16133;49.486;12.176;2023-08-24T08:56:32;97604.53;;;25.83;67.15
29045;BME280;16133;49.486;12.176;2023-08-24T08:59:02;97609.66;;;25.54;67.39
29045;BME280;16133;49.486;12.176;2023-08-24T09:01:29;97601.44;;;25.34;66.68
29045;BME280;16133;49.486;12.176;2023-08-24T09:03:57;97596.78;;;25.14;66.57
29045;BME280;16133;49.486;12.176;2023-08-24T09:06:22;97605.19;;;24.98;66.75
29045;BME280;16133;49.486;12.176;2023-08-24T09:08:49;97604.34;;;24.87;68.47
29045;BME280;16133;49.486;12.176;2023-08-24T09:11:15;97591.78;;;24.76;69.90
29045;BME280;16133;49.486;12.176;2023-08-24T09:13:42;97590.94;;;24.70;70.46
29045;BME280;16133;49.486;12.176;2023-08-24T09:16:08;97587.13;;;24.66;70.98
29045;BME280;16133;49.486;12.176;2023-08-24T09:18:39;97590.38;;;24.68;72.41
29045;BME280;16133;49.486;12.176;2023-08-24T09:21:08;97582.53;;;24.72;74.66
29045;BME280;16133;49.486;12.176;2023-08-24T09:23:34;97593.66;;;24.70;73.23
29045;BME280;16133;49.486;12.176;2023-08-24T09:26:00;97584.66;;;24.65;70.05
29045;BME280;16133;49.486;12.176;2023-08-24T09:28:25;97584.66;;;24.65;68.79
29045;BME280;16133;49.486;12.176;2023-08-24T09:30:54;97576.75;;;24.58;68.72
29045;BME280;16133;49.486;12.176;2023-08-24T09:33:22;97570.53;;;24.58;68.34
29045;BME280;16133;49.486;12.176;2023-08-24T09:35:54;97567.28;;;24.61;70.33
29045;BME280;16133;49.486;12.176;2023-08-24T09:38:23;97559.69;;;24.63;71.55
29045;BME280;16133;49.486;12.176;2023-08-24T09:40:53;97556.72;;;24.64;68.94
29045;BME280;16133;49.486;12.176;2023-08-24T09:43:20;97554.81;;;24.65;68.65
29045;BME280;16133;49.486;12.176;2023-08-24T09:45:56;97555.91;;;24.69;67.01
29045;BME280;16133;49.486;12.176;2023-08-24T09:48:22;97553.75;;;24.71;67.69
29045;BME280;16133;49.486;12.176;2023-08-24T09:50:51;97552.69;;;24.77;64.87
29045;BME280;16133;49.486;12.176;2023-08-24T09:53:22;97555.41;;;24.77;64.72
29045;BME280;16133;49.486;12.176;2023-08-24T09:56:01;97536.94;;;24.74;63.79
29045;BME280;16133;49.486;12.176;2023-08-24T09:58:27;97522.03;;;24.82;65.19
29045;BME280;16133;49.486;12.176;2023-08-24T10:00:54;97519.91;;;24.89;63.21
29045;BME280;16133;49.486;12.176;2023-08-24T10:03:30;97516.66;;;24.97;63.86
29045;BME280;16133;49.486;12.176;2023-08-24T10:05:57;97512.06;;;25.02;63.79
29045;BME280;16133;49.486;12.176;2023-08-24T10:08:34;97506.13;;;25.10;64.23
29045;BME280;16133;49.486;12.176;2023-08-24T10:11:00;97496.06;;;25.16;64.53
29045;BME280;16133;49.486;12.176;2023-08-24T10:13:39;97490.34;;;25.22;63.99
29045;BME280;16133;49.486;12.176;2023-08-24T10:16:07;97477.59;;;25.28;61.73
29045;BME280;16133;49.486;12.176;2023-08-24T10:18:33;97469.47;;;25.33;61.48
29045;BME280;16133;49.486;12.176;2023-08-24T10:21:00;97458.03;;;25.36;60.34
29045;BME280;16133;49.486;12.176;2023-08-24T10:23:29;97460.22;;;25.59;62.27
29045;BME280;16133;49.486;12.176;2023-08-24T10:25:55;97469.69;;;25.82;63.64
29045;BME280;16133;49.486;12.176;2023-08-24T10:28:23;97465.50;;;26.15;63.76
29045;BME280;16133;49.486;12.176;2023-08-24T10:30:51;97460.16;;;26.59;63.06
29045;BME280;16133;49.486;12.176;2023-08-24T10:33:18;97458.75;;;27.10;63.26
29045;BME280;16133;49.486;12.176;2023-08-24T10:35:44;97463.19;;;27.69;60.17
29045;BME280;16133;49.486;12.176;2023-08-24T10:38:25;97463.88;;;28.32;58.95
29045;BME280;16133;49.486;12.176;2023-08-24T10:40:52;97464.69;;;28.75;54.58
29045;BME280;16133;49.486;12.176;2023-08-24T10:43:18;97457.44;;;29.03;52.91
29045;BME280;16133;49.486;12.176;2023-08-24T10:45:59;97457.34;;;29.27;54.24
29045;BME280;16133;49.486;12.176;2023-08-24T10:48:28;97451.38;;;29.43;54.15
29045;BME280;16133;49.486;12.176;2023-08-24T10:53:43;97443.19;;;29.57;53.43
29045;BME280;16133;49.486;12.176;2023-08-24T10:56:16;97444.19;;;29.61;54.22
29045;BME280;16133;49.486;12.176;2023-08-24T10:58:46;97442.16;;;29.67;53.34
29045;BME280;16133;49.486;12.176;2023-08-24T11:01:18;97426.91;;;29.66;53.96
29045;BME280;16133;49.486;12.176;2023-08-24T11:03:54;97425.34;;;29.60;53.54
29045;BME280;16133;49.486;12.176;2023-08-24T11:06:21;97415.09;;;29.19;51.95
29045;BME280;16133;49.486;12.176;2023-08-24T11:08:48;97415.44;;;28.99;54.16
29045;BME280;16133;49.486;12.176;2023-08-24T11:11:23;97414.56;;;28.66;54.24
29045;BME280;16133;49.486;12.176;2023-08-24T11:14:17;97407.94;;;28.30;54.20
29045;BME280;16133;49.486;12.176;2023-08-24T11:16:52;97415.84;;;28.08;52.81
29045;BME280;16133;49.486;12.176;2023-08-24T11:19:18;97418.88;;;27.82;52.74
29045;BME280;16133;49.486;12.176;2023-08-24T11:21:45;97416.38;;;27.62;52.88
29045;BME280;16133;49.486;12.176;2023-08-24T11:24:13;97421.50;;;27.35;53.87
29045;BME280;16133;49.486;12.176;2023-08-24T11:26:43;97418.34;;;27.23;54.49
29045;BME280;16133;49.486;12.176;2023-08-24T11:29:09;97417.81;;;27.21;55.92
29045;BME280;16133;49.486;12.176;2023-08-24T11:31:36;97411.13;;;27.37;54.71
29045;BME280;16133;49.486;12.176;2023-08-24T11:34:02;97413.06;;;27.65;54.65
29045;BME280;16133;49.486;12.176;2023-08-24T11:36:29;97412.13;;;27.98;54.46
29045;BME280;16133;49.486;12.176;2023-08-24T11:38:59;97392.16;;;28.27;52.92
29045;BME280;16133;49.486;12.176;2023-08-24T11:41:25;97408.56;;;28.64;51.82
29045;BME280;16133;49.486;12.176;2023-08-24T11:43:59;97399.84;;;29.00;50.51
29045;BME280;16133;49.486;12.176;2023-08-24T11:46:25;97401.22;;;29.34;49.70
29045;BME280;16133;49.486;12.176;2023-08-24T11:48:50;97402.97;;;29.71;48.48
29045;BME280;16133;49.486;12.176;2023-08-24T11:51:16;97397.94;;;30.06;48.39
29045;BME280;16133;49.486;12.176;2023-08-24T11:53:43;97390.44;;;30.25;47.22
29045;BME280;16133;49.486;12.176;2023-08-24T11:56:10;97384.06;;;30.43;47.28
29045;BME280;16133;49.486;12.176;2023-08-24T11:58:43;97387.88;;;30.42;45.91
29045;BME280;16133;49.486;12.176;2023-08-24T12:01:10;97381.59;;;30.42;45.30
29045;BME280;16133;49.486;12.176;2023-08-24T12:03:37;97372.78;;;30.31;46.25
29045;BME280;16133;49.486;12.176;2023-08-24T12:06:10;97365.72;;;30.16;46.84
29045;BME280;16133;49.486;12.176;2023-08-24T12:08:47;97363.41;;;29.96;45.59
29045;BME280;16133;49.486;12.176;2023-08-24T12:11:20;97356.50;;;29.58;46.58
29045;BME280;16133;49.486;12.176;2023-08-24T12:13:48;97350.97;;;29.30;49.05
29045;BME280;16133;49.486;12.176;2023-08-24T12:16:16;97352.94;;;29.11;49.79
29045;BME280;16133;49.486;12.176;2023-08-24T12:18:51;97353.88;;;28.88;48.24
29045;BME280;16133;49.486;12.176;2023-08-24T12:21:17;97348.16;;;28.71;49.73
29045;BME280;16133;49.486;12.176;2023-08-24T12:23:45;97343.91;;;28.60;50.43
29045;BME280;16133;49.486;12.176;2023-08-24T12:26:17;97332.56;;;28.52;50.72
29045;BME280;16133;49.486;12.176;2023-08-24T12:28:43;97330.63;;;28.53;49.24
29045;BME280;16133;49.486;12.176;2023-08-24T12:31:08;97327.91;;;28.53;49.94
29045;BME280;16133;49.486;12.176;2023-08-24T12:33:34;97325.25;;;28.67;50.07
29045;BME280;16133;49.486;12.176;2023-08-24T12:35:59;97329.38;;;28.83;47.96
29045;BME280;16133;49.486;12.176;2023-08-24T12:38:26;97321.44;;;29.14;48.36
29045;BME280;16133;49.486;12.176;2023-08-24T12:40:53;97324.16;;;29.46;47.48
29045;BME280;16133;49.486;12.176;2023-08-24T12:43:19;97324.28;;;29.68;46.96
29045;BME280;16133;49.486;12.176;2023-08-24T12:45:44;97316.84;;;29.82;46.11
29045;BME280;16133;49.486;12.176;2023-08-24T12:48:10;97312.94;;;29.88;46.28
29045;BME280;16133;49.486;12.176;2023-08-24T12:50:37;97307.88;;;29.82;44.46
29045;BME280;16133;49.486;12.176;2023-08-24T12:53:03;97298.22;;;29.71;43.18